ADDS METAR Data INFO
IDs: Format: Raw Decoded Include TAF

Data at: 2119 UTC 19 Jan 2018

METAR for:KCRW (Charleston/Yeager Ar, WV, US)
Text:KCRW 192054Z 22007KT 10SM FEW300 06/M11 A3012 RMK AO2 SLP207 T00611111 55018
Temperature: 6.1°C ( 43°F)
Dewpoint:-11.1°C ( 12°F) [RH = 28%]
Pressure (altimeter):30.12 inches Hg (1020.1 mb) [Sea level pressure: 1020.7 mb]
Winds:from the SW (220 degrees) at 8 MPH (7 knots; 3.6 m/s)
Visibility:10 or more sm (16+ km)
Ceiling:at least 12,000 feet AGL
Clouds: few clouds at 30000 feet AGL
Text:KCRW 191954Z 21009KT 10SM FEW300 06/M10 A3012 RMK AO2 SLP207 T00611100
Temperature: 6.1°C ( 43°F)
Dewpoint:-10.0°C ( 14°F) [RH = 30%]
Pressure (altimeter):30.12 inches Hg (1020.1 mb) [Sea level pressure: 1020.7 mb]
Winds:from the SSW (210 degrees) at 10 MPH (9 knots; 4.6 m/s)
Visibility:10 or more sm (16+ km)
Ceiling:at least 12,000 feet AGL
Clouds: few clouds at 30000 feet AGL
Text:KCRW 191854Z 19006KT 10SM FEW300 06/M09 A3014 RMK AO2 SLP214 T00561094
Temperature: 5.6°C ( 42°F)
Dewpoint: -9.4°C ( 15°F) [RH = 33%]
Pressure (altimeter):30.14 inches Hg (1020.7 mb) [Sea level pressure: 1021.4 mb]
Winds:from the S (190 degrees) at 7 MPH (6 knots; 3.1 m/s)
Visibility:10 or more sm (16+ km)
Ceiling:at least 12,000 feet AGL
Clouds: few clouds at 30000 feet AGL
Text:KCRW 191754Z 21009KT 10SM FEW300 04/M11 A3017 RMK AO2 SLP225 4/001 T00391106 10039 21100 58021
Temperature: 3.9°C ( 39°F)
Dewpoint:-10.6°C ( 13°F) [RH = 34%]
Pressure (altimeter):30.17 inches Hg (1021.8 mb) [Sea level pressure: 1022.5 mb]
Winds:from the SSW (210 degrees) at 10 MPH (9 knots; 4.6 m/s)
Visibility:10 or more sm (16+ km)
Ceiling:at least 12,000 feet AGL
Clouds: few clouds at 30000 feet AGL
Text:KCRW 191654Z 23006KT 10SM FEW300 03/M11 A3022 RMK AO2 SLP242 T00281111
Temperature: 2.8°C ( 37°F)
Dewpoint:-11.1°C ( 12°F) [RH = 35%]
Pressure (altimeter):30.22 inches Hg (1023.5 mb) [Sea level pressure: 1024.2 mb]
Winds:from the SW (230 degrees) at 7 MPH (6 knots; 3.1 m/s)
Visibility:10 or more sm (16+ km)
Ceiling:at least 12,000 feet AGL
Clouds: few clouds at 30000 feet AGL
Text:KCRW 191554Z 24008KT 10SM FEW300 01/M12 A3025 RMK AO2 SLP254 T00111117
Temperature: 1.1°C ( 34°F)
Dewpoint:-11.7°C ( 11°F) [RH = 38%]
Pressure (altimeter):30.25 inches Hg (1024.5 mb) [Sea level pressure: 1025.4 mb]
Winds:from the WSW (240 degrees) at 9 MPH (8 knots; 4.1 m/s)
Visibility:10 or more sm (16+ km)
Ceiling:at least 12,000 feet AGL
Clouds: few clouds at 30000 feet AGL
Text:KCRW 191454Z 22008KT 10SM FEW300 M01/M11 A3024 RMK AO2 SLP249 T10061111 58005
Temperature: -0.6°C ( 31°F)
Dewpoint:-11.1°C ( 12°F) [RH = 45%]
Pressure (altimeter):30.24 inches Hg (1024.1 mb) [Sea level pressure: 1024.9 mb]
Winds:from the SW (220 degrees) at 9 MPH (8 knots; 4.1 m/s)
Visibility:10 or more sm (16+ km)
Ceiling:at least 12,000 feet AGL
Clouds: few clouds at 30000 feet AGL
Text:KCRW 191354Z 20006KT 10SM FEW300 M05/M11 A3025 RMK AO2 SLP255 T10501111
Temperature: -5.0°C ( 23°F)
Dewpoint:-11.1°C ( 12°F) [RH = 62%]
Pressure (altimeter):30.25 inches Hg (1024.5 mb) [Sea level pressure: 1025.5 mb]
Winds:from the SSW (200 degrees) at 7 MPH (6 knots; 3.1 m/s)
Visibility:10 or more sm (16+ km)
Ceiling:at least 12,000 feet AGL
Clouds: few clouds at 30000 feet AGL
Text:KCRW 191254Z 00000KT 10SM FEW300 M09/M12 A3025 RMK AO2 SLP259 T10891117
Temperature: -8.9°C ( 16°F)
Dewpoint:-11.7°C ( 11°F) [RH = 80%]
Pressure (altimeter):30.25 inches Hg (1024.5 mb) [Sea level pressure: 1025.9 mb]
Winds:calm
Visibility:10 or more sm (16+ km)
Ceiling:at least 12,000 feet AGL
Clouds: few clouds at 30000 feet AGL
Text:KCRW 191154Z COR 00000KT 10SM CLR M09/M12 A3025 RMK AO2 SLP257 T10891117 11033 21100 51014
Temperature: -8.9°C ( 16°F)
Dewpoint:-11.7°C ( 11°F) [RH = 80%]
Pressure (altimeter):30.25 inches Hg (1024.5 mb) [Sea level pressure: 1025.7 mb]
Winds:calm
Visibility:10 or more sm (16+ km)
Ceiling:at least 12,000 feet AGL
Clouds:sky clear below 12,000 feet AGL
Text:KCRW 191054Z 17003KT 10SM CLR M08/M11 A3024 RMK AO2 SLP253 T10831111
Temperature: -8.3°C ( 17°F)
Dewpoint:-11.1°C ( 12°F) [RH = 80%]
Pressure (altimeter):30.24 inches Hg (1024.1 mb) [Sea level pressure: 1025.3 mb]
Winds:from the S (170 degrees) at 3 MPH (3 knots; 1.5 m/s)
Visibility:10 or more sm (16+ km)
Ceiling:at least 12,000 feet AGL
Clouds:sky clear below 12,000 feet AGL
Text:KCRW 190954Z 00000KT 10SM CLR M08/M11 A3023 RMK AO2 SLP248 T10781106
Temperature: -7.8°C ( 18°F)
Dewpoint:-10.6°C ( 13°F) [RH = 80%]
Pressure (altimeter):30.23 inches Hg (1023.8 mb) [Sea level pressure: 1024.8 mb]
Winds:calm
Visibility:10 or more sm (16+ km)
Ceiling:at least 12,000 feet AGL
Clouds:sky clear below 12,000 feet AGL
Text:KCRW 190854Z 00000KT 10SM CLR M08/M11 A3021 RMK AO2 SLP242 T10781111 55007
Temperature: -7.8°C ( 18°F)
Dewpoint:-11.1°C ( 12°F) [RH = 77%]
Pressure (altimeter):30.21 inches Hg (1023.1 mb) [Sea level pressure: 1024.2 mb]
Winds:calm
Visibility:10 or more sm (16+ km)
Ceiling:at least 12,000 feet AGL
Clouds:sky clear below 12,000 feet AGL
Text:KCRW 190754Z 00000KT 10SM CLR M06/M11 A3021 RMK AO2 SLP241 T10611111
Temperature: -6.1°C ( 21°F)
Dewpoint:-11.1°C ( 12°F) [RH = 68%]
Pressure (altimeter):30.21 inches Hg (1023.1 mb) [Sea level pressure: 1024.1 mb]
Winds:calm
Visibility:10 or more sm (16+ km)
Ceiling:at least 12,000 feet AGL
Clouds:sky clear below 12,000 feet AGL
Text:KCRW 190654Z 19005KT 10SM CLR M04/M12 A3021 RMK AO2 SLP241 T10441122
Temperature: -4.4°C ( 24°F)
Dewpoint:-12.2°C ( 10°F) [RH = 54%]
Pressure (altimeter):30.21 inches Hg (1023.1 mb) [Sea level pressure: 1024.1 mb]
Winds:from the S (190 degrees) at 6 MPH (5 knots; 2.6 m/s)
Visibility:10 or more sm (16+ km)
Ceiling:at least 12,000 feet AGL
Clouds:sky clear below 12,000 feet AGL
Text:KCRW 190554Z 22005KT 10SM CLR M03/M12 A3023 RMK AO2 SLP248 4/003 T10331122 11022 21067 58020
Temperature: -3.3°C ( 26°F)
Dewpoint:-12.2°C ( 10°F) [RH = 50%]
Pressure (altimeter):30.23 inches Hg (1023.8 mb) [Sea level pressure: 1024.8 mb]
Winds:from the SW (220 degrees) at 6 MPH (5 knots; 2.6 m/s)
Visibility:10 or more sm (16+ km)
Ceiling:at least 12,000 feet AGL
Clouds:sky clear below 12,000 feet AGL
Text:KCRW 190454Z 00000KT 10SM CLR M06/M11 A3026 RMK AO2 SLP260 T10561111 410061133
Temperature: -5.6°C ( 22°F)
Dewpoint:-11.1°C ( 12°F) [RH = 65%]
Pressure (altimeter):30.26 inches Hg (1024.8 mb) [Sea level pressure: 1026.0 mb]
Winds:calm
Visibility:10 or more sm (16+ km)
Ceiling:at least 12,000 feet AGL
Clouds:sky clear below 12,000 feet AGL
Text:KCRW 190354Z 19005KT 10SM CLR M06/M11 A3029 RMK AO2 SLP269 T10561106
Temperature: -5.6°C ( 22°F)
Dewpoint:-10.6°C ( 13°F) [RH = 68%]
Pressure (altimeter):30.29 inches Hg (1025.8 mb) [Sea level pressure: 1026.9 mb]
Winds:from the S (190 degrees) at 6 MPH (5 knots; 2.6 m/s)
Visibility:10 or more sm (16+ km)
Ceiling:at least 12,000 feet AGL
Clouds:sky clear below 12,000 feet AGL
Text:KCRW 190254Z 17003KT 10SM CLR M06/M11 A3029 RMK AO2 SLP272 T10561111 53002
Temperature: -5.6°C ( 22°F)
Dewpoint:-11.1°C ( 12°F) [RH = 65%]
Pressure (altimeter):30.29 inches Hg (1025.8 mb) [Sea level pressure: 1027.2 mb]
Winds:from the S (170 degrees) at 3 MPH (3 knots; 1.5 m/s)
Visibility:10 or more sm (16+ km)
Ceiling:at least 12,000 feet AGL
Clouds:sky clear below 12,000 feet AGL
Text:KCRW 190154Z 19005KT 10SM CLR M04/M11 A3028 RMK AO2 SLP268 T10391111
Temperature: -3.9°C ( 25°F)
Dewpoint:-11.1°C ( 12°F) [RH = 57%]
Pressure (altimeter):30.28 inches Hg (1025.5 mb) [Sea level pressure: 1026.8 mb]
Winds:from the S (190 degrees) at 6 MPH (5 knots; 2.6 m/s)
Visibility:10 or more sm (16+ km)
Ceiling:at least 12,000 feet AGL
Clouds:sky clear below 12,000 feet AGL
Text:KCRW 190054Z 19005KT 10SM CLR M03/M11 A3029 RMK AO2 SLP270 T10331111
Temperature: -3.3°C ( 26°F)
Dewpoint:-11.1°C ( 12°F) [RH = 55%]
Pressure (altimeter):30.29 inches Hg (1025.8 mb) [Sea level pressure: 1027.0 mb]
Winds:from the S (190 degrees) at 6 MPH (5 knots; 2.6 m/s)
Visibility:10 or more sm (16+ km)
Ceiling:at least 12,000 feet AGL
Clouds:sky clear below 12,000 feet AGL
Text:KCRW 182354Z 20006KT 10SM CLR M03/M12 A3029 RMK AO2 SLP271 4/003 T10281117 11006 21039 53009
Temperature: -2.8°C ( 27°F)
Dewpoint:-11.7°C ( 11°F) [RH = 50%]
Pressure (altimeter):30.29 inches Hg (1025.8 mb) [Sea level pressure: 1027.1 mb]
Winds:from the SSW (200 degrees) at 7 MPH (6 knots; 3.1 m/s)
Visibility:10 or more sm (16+ km)
Ceiling:at least 12,000 feet AGL
Clouds:sky clear below 12,000 feet AGL
Text:KCRW 182254Z 24007KT 10SM CLR M02/M12 A3027 RMK AO2 SLP266 T10171117
Temperature: -1.7°C ( 29°F)
Dewpoint:-11.7°C ( 11°F) [RH = 46%]
Pressure (altimeter):30.27 inches Hg (1025.1 mb) [Sea level pressure: 1026.6 mb]
Winds:from the WSW (240 degrees) at 8 MPH (7 knots; 3.6 m/s)
Visibility:10 or more sm (16+ km)
Ceiling:at least 12,000 feet AGL
Clouds:sky clear below 12,000 feet AGL
Text:KCRW 182154Z 23010KT 10SM CLR M01/M12 A3025 RMK AO2 SLP259 T10111117
Temperature: -1.1°C ( 30°F)
Dewpoint:-11.7°C ( 11°F) [RH = 44%]
Pressure (altimeter):30.25 inches Hg (1024.5 mb) [Sea level pressure: 1025.9 mb]
Winds:from the SW (230 degrees) at 12 MPH (10 knots; 5.1 m/s)
Visibility:10 or more sm (16+ km)
Ceiling:at least 12,000 feet AGL
Clouds:sky clear below 12,000 feet AGL